Time;durP1;ratioP1;P1;durP2;ratioP2;P2;SDS_P1;SDS_P2;PMS_P1;PMS_P2;Temp;Humidity;BMP_temperature;BMP_pressure;BME280_temperature;BME280_humidity;BME280_pressure;Samples;Min_cycle;Max_cycle;Signal;HPM_P1;HPM_P2
2021/01/21 00:00:55;;;;;;;5.20;2.20;;;;;;;10.24;59.49;102557.38;5044905;28;20049;-65
2021/01/21 00:03:21;;;;;;;7.63;2.63;;;;;;;10.29;59.16;102558.47;5012429;28;20515;-66
2021/01/21 00:05:46;;;;;;;9.30;4.10;;;;;;;10.34;58.88;102562.22;5017441;28;20088;-66
2021/01/21 00:08:11;;;;;;;7.15;3.78;;;;;;;10.40;59.48;102562.50;5013883;28;20030;-66
2021/01/21 00:10:37;;;;;;;6.68;3.33;;;;;;;10.38;59.41;102562.41;5030541;28;20087;-65
2021/01/21 00:13:02;;;;;;;6.63;2.38;;;;;;;10.35;59.17;102562.28;5031881;28;20041;-65
2021/01/21 00:15:27;;;;;;;6.68;2.60;;;;;;;10.38;59.50;102567.69;5028655;28;20061;-65
2021/01/21 00:17:53;;;;;;;4.95;2.53;;;;;;;10.36;59.64;102560.56;5029616;28;20099;-65
2021/01/21 00:20:18;;;;;;;6.82;2.03;;;;;;;10.29;59.34;102556.75;5022928;28;20044;-66
2021/01/21 00:22:43;;;;;;;3.88;2.10;;;;;;;10.24;59.67;102558.25;5011939;28;20038;-66
2021/01/21 00:25:09;;;;;;;4.93;2.40;;;;;;;10.21;59.08;102560.75;5012679;28;20049;-66
2021/01/21 00:27:34;;;;;;;5.90;2.60;;;;;;;10.18;59.42;102560.59;5015535;28;20522;-65
2021/01/21 00:29:59;;;;;;;4.13;3.03;;;;;;;10.15;59.04;102557.81;5032822;28;20076;-66
2021/01/21 00:32:25;;;;;;;3.85;2.72;;;;;;;10.12;59.49;102568.19;5027878;28;20072;-65
2021/01/21 00:34:50;;;;;;;4.07;2.10;;;;;;;10.07;59.07;102556.53;5024681;28;20034;-66
2021/01/21 00:37:15;;;;;;;3.75;2.20;;;;;;;10.05;59.49;102563.47;5017368;28;20124;-65
2021/01/21 00:39:41;;;;;;;4.03;2.22;;;;;;;10.02;59.21;102565.06;5033298;28;20077;-65
2021/01/21 00:42:06;;;;;;;4.00;2.13;;;;;;;9.99;59.69;102569.38;5014120;28;20037;-66
2021/01/21 00:44:31;;;;;;;9.63;2.60;;;;;;;9.97;59.46;102559.59;5045686;28;20046;-66
2021/01/21 00:46:57;;;;;;;4.88;2.67;;;;;;;9.96;60.03;102563.06;5024934;28;20038;-65
2021/01/21 00:49:22;;;;;;;4.13;2.15;;;;;;;9.95;60.01;102561.25;5026918;28;20045;-66
2021/01/21 00:51:47;;;;;;;2.85;1.83;;;;;;;9.93;59.54;102565.53;5011394;28;20406;-65
2021/01/21 00:54:13;;;;;;;10.48;1.85;;;;;;;9.92;59.89;102563.72;5043643;28;20584;-66
2021/01/21 00:56:38;;;;;;;4.00;1.55;;;;;;;9.95;59.70;102545.41;5013722;28;20038;-66
2021/01/21 00:59:03;;;;;;;10.32;3.85;;;;;;;9.98;60.12;102540.28;5009091;28;20042;-66
2021/01/21 01:01:29;;;;;;;6.43;4.93;;;;;;;9.99;59.67;102542.09;4993514;28;20423;-66
2021/01/21 01:03:54;;;;;;;4.53;3.40;;;;;;;9.97;59.71;102541.13;5026075;28;20125;-65
2021/01/21 01:06:20;;;;;;;3.97;1.85;;;;;;;9.94;60.33;102538.34;5015737;28;20042;-66
2021/01/21 01:08:45;;;;;;;3.90;1.90;;;;;;;9.90;60.13;102546.94;5010697;28;20093;-65
2021/01/21 01:11:10;;;;;;;6.03;1.73;;;;;;;9.84;60.03;102542.28;4991832;28;20448;-66
2021/01/21 01:13:36;;;;;;;5.78;2.42;;;;;;;9.84;59.77;102534.38;4998610;28;20042;-65
2021/01/21 01:16:01;;;;;;;5.25;2.10;;;;;;;9.84;60.02;102538.75;5009424;28;20107;-65
2021/01/21 01:18:26;;;;;;;5.55;2.80;;;;;;;9.84;59.86;102539.66;5000832;28;20065;-66
2021/01/21 01:20:52;;;;;;;7.15;2.45;;;;;;;9.90;60.02;102544.31;5002254;28;20407;-65
2021/01/21 01:23:17;;;;;;;3.55;1.77;;;;;;;10.01;59.99;102550.97;5012336;28;20404;-65
2021/01/21 01:25:42;;;;;;;3.17;2.00;;;;;;;10.09;59.85;102533.78;4991628;28;20541;-65
2021/01/21 01:28:08;;;;;;;4.20;2.22;;;;;;;10.19;60.19;102537.75;5010795;28;20029;-65
2021/01/21 01:30:33;;;;;;;5.05;2.08;;;;;;;10.26;60.41;102542.47;5009754;28;20042;-66
2021/01/21 01:32:58;;;;;;;9.25;2.42;;;;;;;10.30;60.30;102534.78;5008750;28;20034;-66
2021/01/21 01:35:24;;;;;;;21.17;8.95;;;;;;;10.32;59.97;102535.75;5024688;28;20045;-66
2021/01/21 01:37:49;;;;;;;3.55;1.60;;;;;;;10.30;60.47;102524.25;5022935;28;20069;-65
2021/01/21 01:40:14;;;;;;;6.28;1.85;;;;;;;10.28;60.10;102525.91;5016560;28;20042;-66
2021/01/21 01:42:40;;;;;;;7.00;3.67;;;;;;;10.29;59.74;102525.06;5029321;28;20045;-66
2021/01/21 01:45:05;;;;;;;4.97;2.30;;;;;;;10.30;60.01;102524.25;5028407;28;20049;-66
2021/01/21 01:47:31;;;;;;;5.53;2.78;;;;;;;10.30;59.97;102526.88;5014638;28;20060;-66
2021/01/21 01:49:56;;;;;;;5.82;2.20;;;;;;;10.28;60.27;102530.28;5011374;28;20088;-65
2021/01/21 01:52:22;;;;;;;3.38;1.70;;;;;;;10.20;60.04;102524.63;5020744;28;20425;-65
2021/01/21 01:54:48;;;;;;;6.90;3.60;;;;;;;10.11;60.21;102520.66;5029154;28;20458;-66
2021/01/21 01:57:13;;;;;;;7.20;2.97;;;;;;;10.00;60.42;102528.97;5023046;28;20519;-66
2021/01/21 01:59:39;;;;;;;7.45;3.70;;;;;;;9.94;60.44;102527.78;5025766;28;20100;-66
2021/01/21 02:02:04;;;;;;;6.45;2.28;;;;;;;9.89;60.31;102524.03;5011086;28;20383;-65
2021/01/21 02:04:29;;;;;;;4.28;2.30;;;;;;;9.87;60.45;102523.03;5010328;28;20046;-66
2021/01/21 02:06:55;;;;;;;3.72;2.25;;;;;;;9.85;60.65;102527.34;5014746;28;20052;-65
2021/01/21 02:09:22;;;;;;;5.50;2.00;;;;;;;9.84;60.68;102529.09;5013448;28;20053;-66
2021/01/21 02:11:47;;;;;;;5.22;1.80;;;;;;;9.83;60.59;102526.38;5026143;28;20056;-65
2021/01/21 02:14:13;;;;;;;5.47;2.42;;;;;;;9.82;60.48;102520.22;5030188;28;20030;-65
2021/01/21 02:16:38;;;;;;;5.20;2.22;;;;;;;9.82;60.53;102514.03;5029080;28;20132;-65
2021/01/21 02:19:03;;;;;;;7.18;1.90;;;;;;;9.79;60.50;102504.22;5029609;28;20033;-66
2021/01/21 02:21:29;;;;;;;6.65;1.92;;;;;;;9.78;60.92;102505.03;5028803;28;20124;-65
2021/01/21 02:23:54;;;;;;;6.05;1.92;;;;;;;9.75;60.60;102511.94;5029678;28;20037;-66
2021/01/21 02:26:19;;;;;;;6.57;1.88;;;;;;;9.72;60.90;102507.41;5029426;28;20433;-65
2021/01/21 02:28:45;;;;;;;3.45;2.20;;;;;;;9.70;60.74;102508.19;5028171;28;20124;-66
2021/01/21 02:31:10;;;;;;;4.43;1.83;;;;;;;9.69;60.77;102504.63;5028784;28;20421;-66
2021/01/21 02:33:35;;;;;;;4.63;2.05;;;;;;;9.68;60.65;102512.47;5024817;28;20057;-66
2021/01/21 02:36:01;;;;;;;3.20;2.13;;;;;;;9.67;60.91;102508.94;5015759;28;20069;-65
2021/01/21 02:38:26;;;;;;;4.82;1.55;;;;;;;9.67;60.82;102508.03;5029943;28;20034;-66
2021/01/21 02:40:52;;;;;;;4.57;1.67;;;;;;;9.66;61.03;102503.56;5028640;28;20065;-66
2021/01/21 02:43:17;;;;;;;4.90;1.73;;;;;;;9.62;60.80;102502.53;5030102;28;20044;-65
2021/01/21 02:45:42;;;;;;;2.00;1.50;;;;;;;9.60;60.92;102499.81;5029771;28;20465;-65
2021/01/21 02:48:08;;;;;;;6.70;2.85;;;;;;;9.59;60.84;102500.66;5029927;28;20029;-65
2021/01/21 02:50:33;;;;;;;13.38;6.20;;;;;;;9.59;60.95;102503.28;5028687;28;20564;-66
2021/01/21 02:53:01;;;;;;;5.80;2.83;;;;;;;9.60;61.34;102499.81;5028463;28;20038;-65
2021/01/21 02:55:27;;;;;;;4.53;2.28;;;;;;;9.65;61.12;102501.78;5029520;28;20033;-66
2021/01/21 02:57:52;;;;;;;5.32;1.45;;;;;;;9.65;61.14;102502.66;5029369;28;20045;-65
2021/01/21 03:00:17;;;;;;;3.83;1.40;;;;;;;9.65;61.32;102502.66;5028570;28;20041;-65
2021/01/21 03:02:43;;;;;;;6.20;1.58;;;;;;;9.66;61.37;102503.56;5027503;28;20073;-65
2021/01/21 03:05:08;;;;;;;4.72;1.67;;;;;;;9.66;61.38;102499.22;5029831;28;20124;-65
2021/01/21 03:07:33;;;;;;;4.30;2.00;;;;;;;9.67;61.37;102498.38;5029789;28;20091;-66
2021/01/21 03:09:59;;;;;;;6.32;2.00;;;;;;;9.69;61.06;102501.09;5028771;28;20038;-65
2021/01/21 03:12:24;;;;;;;11.35;1.67;;;;;;;9.68;61.29;102505.47;5029599;28;20112;-65
2021/01/21 03:14:49;;;;;;;4.57;1.80;;;;;;;9.68;61.00;102500.19;5009823;28;20091;-65
2021/01/21 03:17:15;;;;;;;3.17;1.75;;;;;;;9.70;61.50;102497.63;5023677;28;20125;-66
2021/01/21 03:19:40;;;;;;;7.55;3.00;;;;;;;9.71;61.41;102492.44;5031635;28;20065;-66
2021/01/21 03:22:06;;;;;;;5.57;2.13;;;;;;;9.72;61.34;102501.22;5024497;28;20418;-65
2021/01/21 03:24:31;;;;;;;4.50;2.45;;;;;;;9.74;61.18;102500.47;5028788;28;20043;-65
2021/01/21 03:26:56;;;;;;;7.97;2.15;;;;;;;9.78;61.42;102510.31;5019389;28;20042;-65
2021/01/21 03:29:22;;;;;;;8.35;2.88;;;;;;;9.81;61.39;102507.84;5040340;28;20136;-65
2021/01/21 03:31:47;;;;;;;1.70;1.00;;;;;;;9.83;61.00;102515.84;5032650;28;20037;-66
2021/01/21 03:34:12;;;;;;;2.95;1.17;;;;;;;9.86;61.20;102513.31;5018557;28;20034;-65
2021/01/21 03:36:38;;;;;;;4.80;1.60;;;;;;;9.89;61.22;102513.47;5013233;28;20042;-66
2021/01/21 03:39:03;;;;;;;1.73;1.25;;;;;;;9.90;60.72;102510.94;5012846;28;20061;-65
2021/01/21 03:41:28;;;;;;;3.83;1.58;;;;;;;9.91;60.82;102520.63;5036123;28;20046;-66
2021/01/21 03:43:54;;;;;;;4.93;1.67;;;;;;;9.90;61.00;102526.75;5043617;28;20053;-66
2021/01/21 03:46:19;;;;;;;3.58;1.63;;;;;;;9.90;61.08;102525.84;5013397;28;20045;-66
2021/01/21 03:48:44;;;;;;;3.63;1.10;;;;;;;9.89;61.36;102526.66;5012437;28;20038;-65
2021/01/21 03:51:10;;;;;;;5.40;1.23;;;;;;;9.88;61.14;102528.41;5012767;28;20049;-66
2021/01/21 03:53:35;;;;;;;7.95;1.40;;;;;;;9.88;60.97;102528.41;5018336;28;20046;-66
2021/01/21 03:56:00;;;;;;;2.55;1.13;;;;;;;9.88;61.16;102523.13;5031821;28;20049;-66
2021/01/21 03:58:26;;;;;;;7.13;1.50;;;;;;;9.88;61.14;102524.88;5030605;28;20071;-66
2021/01/21 04:00:51;;;;;;;4.07;1.23;;;;;;;9.88;60.87;102530.13;5030271;28;20454;-66
2021/01/21 04:03:16;;;;;;;6.40;1.13;;;;;;;9.89;61.21;102539.88;5032090;28;20049;-65
2021/01/21 04:05:42;;;;;;;3.88;1.40;;;;;;;9.87;61.14;102531.88;5028962;28;20046;-66
2021/01/21 04:08:07;;;;;;;7.53;1.23;;;;;;;9.88;60.97;102531.03;5047147;28;20034;-66
2021/01/21 04:10:32;;;;;;;6.60;1.10;;;;;;;9.88;60.86;102525.75;5026018;28;20443;-66
2021/01/21 04:12:58;;;;;;;2.35;1.13;;;;;;;9.90;61.25;102532.03;5012992;28;20038;-65
2021/01/21 04:15:23;;;;;;;2.63;1.05;;;;;;;9.92;61.36;102530.34;5027544;28;20449;-65
2021/01/21 04:17:48;;;;;;;3.17;1.15;;;;;;;9.95;61.38;102535.78;5027381;28;20081;-65
2021/01/21 04:20:14;;;;;;;7.45;1.25;;;;;;;9.98;61.31;102540.28;5027446;28;20044;-66
2021/01/21 04:22:39;;;;;;;3.88;1.27;;;;;;;10.00;61.00;102541.25;5027508;28;20068;-66
2021/01/21 04:25:04;;;;;;;3.55;1.58;;;;;;;10.03;61.33;102544.06;5021848;28;20064;-66
2021/01/21 04:27:30;;;;;;;4.85;1.10;;;;;;;10.05;60.89;102546.72;5013868;28;20073;-66
2021/01/21 04:29:55;;;;;;;2.00;1.15;;;;;;;10.08;60.92;102547.78;5021603;28;20557;-66
2021/01/21 04:32:20;;;;;;;4.97;1.27;;;;;;;10.10;61.32;102553.16;5012250;28;20037;-66
2021/01/21 04:34:46;;;;;;;7.93;1.05;;;;;;;10.10;60.82;102561.06;5034630;28;20064;-66
2021/01/21 04:37:11;;;;;;;7.43;1.30;;;;;;;10.11;61.29;102554.97;5022913;28;20196;-65
2021/01/21 04:39:36;;;;;;;4.00;0.90;;;;;;;10.08;61.33;102552.16;5027896;28;20057;-65
2021/01/21 04:42:02;;;;;;;4.07;1.10;;;;;;;10.06;61.27;102553.81;5030639;28;20387;-66
2021/01/21 04:44:27;;;;;;;4.78;1.40;;;;;;;10.03;61.34;102549.31;5029752;28;20045;-65
2021/01/21 04:46:52;;;;;;;2.45;1.20;;;;;;;10.02;61.01;102557.16;5030785;28;20049;-66
2021/01/21 04:49:18;;;;;;;7.45;1.63;;;;;;;9.99;61.14;102566.72;5031021;28;20053;-66
2021/01/21 04:51:43;;;;;;;5.68;1.30;;;;;;;9.97;61.28;102565.78;5019168;28;20056;-66
2021/01/21 04:54:08;;;;;;;5.43;1.63;;;;;;;9.96;61.33;102565.69;5011659;28;20030;-65
2021/01/21 04:56:34;;;;;;;4.72;1.17;;;;;;;9.95;61.69;102569.16;5011457;28;20042;-66
2021/01/21 04:59:00;;;;;;;4.28;3.03;;;;;;;9.95;61.66;102569.16;5016199;28;20045;-66
2021/01/21 05:01:25;;;;;;;3.55;1.35;;;;;;;9.93;61.33;102570.81;5020659;28;20052;-65
2021/01/21 05:03:50;;;;;;;3.15;0.88;;;;;;;9.90;61.68;102578.59;5036399;28;20061;-66
2021/01/21 05:06:16;;;;;;;2.50;0.90;;;;;;;9.88;61.72;102581.16;5027501;28;20049;-66
2021/01/21 05:08:41;;;;;;;2.65;0.85;;;;;;;9.84;61.72;102584.50;5034991;28;20045;-66
2021/01/21 05:11:06;;;;;;;9.15;1.52;;;;;;;9.83;61.75;102592.31;5019218;28;20377;-66
2021/01/21 05:13:32;;;;;;;20.08;12.27;;;;;;;9.82;61.77;102590.50;5016764;28;20037;-65
2021/01/21 05:15:57;;;;;;;15.52;10.07;;;;;;;9.82;61.69;102586.16;5028743;28;20048;-66
2021/01/21 05:18:22;;;;;;;21.08;6.68;;;;;;;9.83;61.66;102593.22;5046212;28;20099;-65
2021/01/21 05:20:48;;;;;;;6.43;5.38;;;;;;;9.84;61.89;102604.69;5017370;28;20030;-66
2021/01/21 05:23:13;;;;;;;9.25;4.53;;;;;;;9.88;62.10;102596.09;5012209;28;20051;-65
2021/01/21 05:25:38;;;;;;;4.50;3.55;;;;;;;9.90;61.94;102605.91;5040876;28;20069;-66
2021/01/21 05:28:04;;;;;;;14.63;6.95;;;;;;;9.94;61.52;102606.94;5011279;28;20100;-66
2021/01/21 05:30:29;;;;;;;14.18;8.80;;;;;;;9.97;61.71;102609.72;5019451;28;20414;-66
2021/01/21 05:32:55;;;;;;;9.55;6.05;;;;;;;9.97;61.54;102607.09;5030197;28;20030;-65
2021/01/21 05:35:20;;;;;;;8.02;6.00;;;;;;;9.98;61.75;102609.78;5029232;28;20437;-66
2021/01/21 05:37:48;;;;;;;15.18;7.30;;;;;;;10.02;61.70;102607.28;5029811;28;20455;-65
2021/01/21 05:40:13;;;;;;;20.10;11.85;;;;;;;10.08;61.50;102611.13;5022138;28;20446;-66
2021/01/21 05:42:39;;;;;;;17.02;8.40;;;;;;;10.15;62.02;102620.25;5011332;28;20034;-66
2021/01/21 05:45:04;;;;;;;12.93;7.78;;;;;;;10.22;61.41;102619.72;5027068;28;20777;-66
2021/01/21 05:47:29;;;;;;;18.13;9.18;;;;;;;10.29;61.88;102616.53;5017515;28;20132;-66
2021/01/21 05:49:55;;;;;;;10.95;6.95;;;;;;;10.36;61.76;102614.28;5033963;28;20096;-65
2021/01/21 05:52:20;;;;;;;8.23;4.38;;;;;;;10.42;61.19;102610.09;5010611;28;20092;-66
2021/01/21 05:54:45;;;;;;;10.00;3.78;;;;;;;10.46;61.14;102618.22;5027046;28;20037;-66
2021/01/21 05:57:11;;;;;;;5.72;3.60;;;;;;;10.52;61.29;102613.22;5022358;28;20120;-66
2021/01/21 05:59:36;;;;;;;15.10;10.30;;;;;;;10.63;61.28;102619.00;5015881;28;20117;-66
2021/01/21 06:02:02;;;;;;;22.52;14.32;;;;;;;10.74;61.46;102615.09;5035242;28;20719;-65
2021/01/21 06:04:27;;;;;;;18.83;16.90;;;;;;;10.90;60.87;102616.66;5041915;28;20046;-66
2021/01/21 06:06:52;;;;;;;28.35;18.60;;;;;;;11.10;61.20;102624.63;5028094;28;20041;-66
2021/01/21 06:09:18;;;;;;;19.58;17.02;;;;;;;11.30;61.12;102627.22;5045011;28;20289;-66
2021/01/21 06:11:43;;;;;;;30.05;18.00;;;;;;;11.47;60.44;102629.75;5027594;28;20065;-65
2021/01/21 06:14:08;;;;;;;41.90;31.90;;;;;;;11.65;60.92;102626.06;5016179;28;20030;-66
2021/01/21 06:16:34;;;;;;;38.97;30.60;;;;;;;11.84;60.03;102626.91;5029721;28;20104;-66
2021/01/21 06:18:59;;;;;;;37.42;28.40;;;;;;;12.05;59.61;102625.94;5014695;28;20046;-66
2021/01/21 06:21:25;;;;;;;63.10;53.03;;;;;;;12.51;59.86;102634.84;5026800;28;20038;-65
2021/01/21 06:23:50;;;;;;;46.92;40.08;;;;;;;13.05;58.96;102629.75;5035751;28;20285;-65
2021/01/21 06:26:16;;;;;;;80.65;71.95;;;;;;;13.67;58.54;102623.97;5011281;28;20040;-66
2021/01/21 06:28:41;;;;;;;63.95;55.58;;;;;;;14.11;57.87;102629.81;5020613;28;20529;-66
2021/01/21 06:31:06;;;;;;;85.05;67.32;;;;;;;14.64;57.29;102629.66;5027313;28;20689;-66
2021/01/21 06:33:32;;;;;;;59.20;49.33;;;;;;;15.16;56.19;102626.69;5027911;28;20048;-66
2021/01/21 06:35:57;;;;;;;89.75;79.93;;;;;;;15.49;56.10;102626.69;5021351;28;20050;-65
2021/01/21 06:38:22;;;;;;;107.15;95.53;;;;;;;15.65;55.45;102629.78;5027496;28;20037;-66
2021/01/21 06:40:48;;;;;;;108.65;96.85;;;;;;;15.58;55.46;102633.13;5022804;28;20050;-66
2021/01/21 06:43:13;;;;;;;128.48;115.05;;;;;;;15.47;55.25;102636.41;5017365;28;20064;-65
2021/01/21 06:45:38;;;;;;;130.18;115.53;;;;;;;15.29;55.21;102635.94;5027035;28;20049;-66
2021/01/21 06:48:04;;;;;;;159.77;143.18;;;;;;;15.09;55.39;102631.84;5029508;28;20042;-67
2021/01/21 06:50:29;;;;;;;108.70;97.13;;;;;;;14.89;55.70;102641.94;5043202;28;20080;-66
2021/01/21 06:52:55;;;;;;;97.45;86.95;;;;;;;14.73;55.79;102635.25;5025743;28;20478;-66
2021/01/21 06:55:20;;;;;;;92.72;83.38;;;;;;;14.66;55.74;102646.56;5044022;28;20499;-66
2021/01/21 06:57:45;;;;;;;130.45;117.18;;;;;;;14.66;55.41;102651.00;5032927;28;20044;-66
2021/01/21 07:00:11;;;;;;;132.35;118.95;;;;;;;14.63;55.78;102650.91;5023333;28;20120;-66
2021/01/21 07:02:36;;;;;;;134.00;120.13;;;;;;;14.58;55.75;102645.44;5032906;28;20145;-66
2021/01/21 07:05:02;;;;;;;106.90;95.43;;;;;;;14.53;55.53;102659.47;5026520;28;20144;-66
2021/01/21 07:07:27;;;;;;;99.30;88.88;;;;;;;14.47;55.62;102654.88;5032709;28;20044;-66
2021/01/21 07:09:52;;;;;;;115.20;103.47;;;;;;;14.48;55.89;102655.78;5031795;28;20046;-66
2021/01/21 07:12:18;;;;;;;116.80;104.70;;;;;;;14.55;55.60;102657.75;5030776;28;20060;-65
2021/01/21 07:14:44;;;;;;;62.80;56.08;;;;;;;14.60;55.44;102661.44;5033215;28;20029;-66
2021/01/21 07:17:09;;;;;;;57.75;47.85;;;;;;;14.70;55.39;102660.88;5030369;28;20045;-66
2021/01/21 07:19:34;;;;;;;48.22;43.03;;;;;;;14.82;55.08;102666.53;5032248;28;20041;-66
2021/01/21 07:22:00;;;;;;;48.97;43.60;;;;;;;14.92;55.11;102668.59;5032465;28;20033;-66
2021/01/21 07:24:25;;;;;;;112.88;101.20;;;;;;;15.00;55.25;102671.47;5032577;28;20064;-66
2021/01/21 07:26:51;;;;;;;129.75;116.40;;;;;;;15.08;54.79;102676.16;5031864;28;20083;-66
2021/01/21 07:29:16;;;;;;;133.38;119.10;;;;;;;15.16;55.04;102679.91;5029988;28;20537;-66
2021/01/21 07:31:41;;;;;;;119.88;106.60;;;;;;;15.24;54.65;102677.47;5032269;28;20045;-66
2021/01/21 07:34:07;;;;;;;74.40;66.22;;;;;;;15.28;54.76;102686.44;5032409;28;20037;-66
2021/01/21 07:36:32;;;;;;;71.75;61.03;;;;;;;15.31;54.65;102678.53;5032160;28;20410;-66
2021/01/21 07:38:57;;;;;;;65.15;50.45;;;;;;;15.35;54.55;102686.66;5031821;28;20433;-66
2021/01/21 07:41:23;;;;;;;49.35;37.63;;;;;;;15.40;54.32;102684.13;5030480;28;20041;-66
2021/01/21 07:43:48;;;;;;;38.85;31.60;;;;;;;15.45;54.64;102690.44;5030977;28;20044;-66
2021/01/21 07:46:13;;;;;;;39.08;27.05;;;;;;;15.49;54.33;102693.22;5031800;28;20112;-66
2021/01/21 07:48:39;;;;;;;40.45;27.88;;;;;;;15.57;54.26;102689.91;5027978;28;20041;-66
2021/01/21 07:51:04;;;;;;;35.83;25.35;;;;;;;15.67;54.28;102691.97;5028336;28;20075;-66
2021/01/21 07:53:29;;;;;;;32.22;23.70;;;;;;;15.75;53.87;102693.94;5031936;28;20734;-66
2021/01/21 07:55:55;;;;;;;31.63;20.02;;;;;;;15.83;53.97;102689.72;5030862;28;20120;-66
2021/01/21 07:58:20;;;;;;;31.25;21.73;;;;;;;15.91;53.87;102701.47;5031830;28;20049;-65
2021/01/21 08:00:46;;;;;;;34.03;24.88;;;;;;;16.00;53.65;102705.22;5030757;28;20037;-67
2021/01/21 08:03:11;;;;;;;42.42;29.23;;;;;;;16.07;53.43;102701.84;5032735;28;20045;-66
2021/01/21 08:05:36;;;;;;;31.38;23.35;;;;;;;16.11;53.30;102698.38;5028137;28;20058;-67
2021/01/21 08:08:03;;;;;;;27.83;19.90;;;;;;;16.13;53.61;102710.91;5022623;28;20102;-66
2021/01/21 08:10:29;;;;;;;32.33;23.83;;;;;;;16.18;53.38;102706.56;5030163;28;20045;-65
2021/01/21 08:12:54;;;;;;;34.05;22.38;;;;;;;16.26;52.87;102706.75;5024002;28;20085;-69
2021/01/21 08:15:19;;;;;;;30.02;18.27;;;;;;;16.39;52.82;102710.59;5019806;28;20554;-66
2021/01/21 08:17:45;;;;;;;25.35;16.65;;;;;;;16.49;53.00;102716.16;5043022;28;20053;-66
2021/01/21 08:20:10;;;;;;;25.17;15.65;;;;;;;16.55;52.63;102710.06;5029539;28;20037;-66
2021/01/21 08:22:36;;;;;;;41.35;21.38;;;;;;;16.60;52.73;102714.69;5027950;28;20030;-66
2021/01/21 08:25:01;;;;;;;17.60;12.43;;;;;;;16.71;52.55;102713.16;5032566;28;20037;-66
2021/01/21 08:27:26;;;;;;;25.92;13.00;;;;;;;16.88;51.77;102709.94;5012348;28;20406;-66
2021/01/21 08:29:52;;;;;;;21.00;15.60;;;;;;;17.09;51.93;102710.38;5018806;28;20144;-66
2021/01/21 08:32:17;;;;;;;34.38;22.73;;;;;;;17.30;51.54;102713.47;5019247;28;20045;-68
2021/01/21 08:34:42;;;;;;;33.10;22.40;;;;;;;17.46;50.87;102714.66;5026289;28;20041;-66
2021/01/21 08:37:08;;;;;;;32.33;21.13;;;;;;;17.58;50.70;102722.03;5011722;28;20046;-66
2021/01/21 08:39:33;;;;;;;63.35;40.15;;;;;;;17.70;51.01;102723.16;5023869;28;20049;-66
2021/01/21 08:41:58;;;;;;;54.47;36.97;;;;;;;17.85;50.35;102712.72;5036708;28;20045;-67
2021/01/21 08:44:24;;;;;;;45.55;33.70;;;;;;;17.99;50.56;102712.97;5044821;28;20041;-67
2021/01/21 08:46:49;;;;;;;52.75;37.97;;;;;;;18.05;49.89;102712.19;5026403;28;20041;-67
2021/01/21 08:49:14;;;;;;;47.60;35.40;;;;;;;18.08;50.44;102712.22;5023807;28;20071;-67
2021/01/21 08:51:44;;;;;;;42.85;31.17;;;;;;;18.07;49.72;102718.44;5027698;28;20073;-66
2021/01/21 08:54:10;;;;;;;36.47;25.90;;;;;;;18.05;50.04;102705.03;5025611;28;20775;-66
2021/01/21 08:56:35;;;;;;;30.73;21.00;;;;;;;18.01;50.23;102707.66;5030188;28;20049;-67
2021/01/21 08:59:02;;;;;;;17.75;11.82;;;;;;;18.07;49.72;102707.75;5027941;28;20042;-66
2021/01/21 09:01:27;;;;;;;13.60;8.70;;;;;;;18.19;49.71;102710.59;5030045;28;20453;-67
2021/01/21 09:03:52;;;;;;;21.63;11.77;;;;;;;18.41;48.95;102706.50;5030541;28;20049;-66
2021/01/21 09:06:18;;;;;;;18.38;12.48;;;;;;;18.76;48.74;102696.31;5025987;28;20629;-67
2021/01/21 09:08:43;;;;;;;12.88;8.80;;;;;;;18.97;48.12;102697.47;5028928;28;20091;-67
2021/01/21 09:11:09;;;;;;;17.02;9.70;;;;;;;19.14;48.00;102695.00;5029762;28;20042;-67
2021/01/21 09:13:35;;;;;;;15.20;8.07;;;;;;;19.21;47.80;102694.19;5031025;28;20037;-66
2021/01/21 09:16:03;;;;;;;11.35;7.75;;;;;;;19.26;47.88;102692.47;5027302;28;20522;-66
2021/01/21 09:18:28;;;;;;;19.63;9.35;;;;;;;19.25;47.80;102684.41;5029546;28;20056;-66
2021/01/21 09:20:54;;;;;;;43.53;15.23;;;;;;;19.21;47.52;102688.84;5028604;28;20402;-68
2021/01/21 09:23:22;;;;;;;37.50;27.88;;;;;;;19.45;46.96;102681.03;5020959;28;20088;-66
2021/01/21 09:25:48;;;;;;;24.05;20.58;;;;;;;19.66;47.05;102688.44;5017799;28;20044;-65
2021/01/21 09:28:13;;;;;;;31.38;18.70;;;;;;;19.84;46.63;102687.69;5023659;28;20045;-66
2021/01/21 09:30:38;;;;;;;30.50;20.05;;;;;;;19.80;46.92;102683.19;5019901;28;20037;-66
2021/01/21 09:33:04;;;;;;;16.05;10.85;;;;;;;19.54;46.90;102674.03;5024107;28;20034;-66
2021/01/21 09:35:29;;;;;;;17.27;10.48;;;;;;;19.22;47.39;102674.56;5015861;28;20053;-66
2021/01/21 09:37:54;;;;;;;19.02;10.38;;;;;;;18.99;47.35;102674.28;5028180;28;20490;-66
2021/01/21 09:40:20;;;;;;;25.90;16.55;;;;;;;18.88;47.56;102673.28;5030430;28;20032;-66
2021/01/21 09:42:45;;;;;;;27.17;16.00;;;;;;;18.86;47.22;102667.00;5026867;28;20617;-66
2021/01/21 09:45:11;;;;;;;28.90;19.42;;;;;;;19.01;46.87;102671.66;5016394;28;20666;-66
2021/01/21 09:47:36;;;;;;;26.60;15.10;;;;;;;19.22;46.87;102663.84;5029945;28;20490;-66
2021/01/21 09:50:01;;;;;;;23.33;14.77;;;;;;;19.59;46.26;102654.41;5029259;28;20077;-66
2021/01/21 09:52:27;;;;;;;22.23;14.85;;;;;;;19.80;46.11;102656.38;5013584;28;20116;-67
2021/01/21 09:54:52;;;;;;;27.55;12.43;;;;;;;19.89;45.93;102646.63;5026553;28;20049;-66
2021/01/21 09:57:17;;;;;;;18.58;10.18;;;;;;;19.91;46.04;102641.28;5013801;28;20042;-66
2021/01/21 09:59:43;;;;;;;10.68;5.65;;;;;;;20.08;45.70;102633.38;5027773;28;20051;-67
2021/01/21 10:02:08;;;;;;;7.47;3.60;;;;;;;20.32;45.54;102627.22;5024519;28;20108;-66
2021/01/21 10:04:38;;;;;;;8.30;4.85;;;;;;;20.40;44.89;102626.44;5024170;28;20567;-66
2021/01/21 10:07:04;;;;;;;12.95;6.88;;;;;;;20.44;44.83;102622.84;5027306;28;20045;-65
2021/01/21 10:09:29;;;;;;;14.13;7.43;;;;;;;20.49;44.63;102620.19;5045378;28;20502;-65
2021/01/21 10:11:55;;;;;;;12.65;5.20;;;;;;;20.44;44.49;102616.59;5029802;28;20037;-65
2021/01/21 10:14:20;;;;;;;9.63;4.25;;;;;;;20.46;44.27;102604.97;5019147;28;20041;-65
2021/01/21 10:16:45;;;;;;;9.00;4.07;;;;;;;20.46;44.34;102610.34;5020457;28;20081;-64
2021/01/21 10:19:11;;;;;;;8.50;4.75;;;;;;;20.49;44.25;102604.97;5014338;28;20490;-66
2021/01/21 10:21:36;;;;;;;7.57;4.22;;;;;;;20.49;43.88;102594.25;5010140;28;20041;-65
2021/01/21 10:24:02;;;;;;;7.20;3.38;;;;;;;20.50;44.09;102590.69;5009916;28;20491;-66
2021/01/21 10:26:27;;;;;;;9.65;2.70;;;;;;;20.54;43.75;102588.94;5010252;28;20092;-67
2021/01/21 10:28:52;;;;;;;13.15;4.50;;;;;;;20.59;43.98;102588.03;5036253;28;20049;-66
2021/01/21 10:31:18;;;;;;;7.47;3.28;;;;;;;20.59;43.51;102581.78;5030330;28;20061;-66
2021/01/21 10:33:43;;;;;;;6.28;2.20;;;;;;;20.49;43.95;102580.84;5025311;28;20026;-66
2021/01/21 10:36:08;;;;;;;7.85;2.65;;;;;;;20.36;43.57;102573.63;5041613;28;20125;-66
2021/01/21 10:38:34;;;;;;;11.50;8.25;;;;;;;20.23;43.86;102569.06;5022113;28;20132;-66
2021/01/21 10:40:59;;;;;;;8.77;6.53;;;;;;;20.12;43.81;102576.16;5033484;28;20045;-66
2021/01/21 10:43:25;;;;;;;12.50;6.78;;;;;;;20.00;44.14;102560.00;5033832;28;20430;-65
2021/01/21 10:45:50;;;;;;;13.77;4.57;;;;;;;19.80;44.15;102558.09;5033133;28;20056;-65
2021/01/21 10:48:15;;;;;;;4.72;3.30;;;;;;;19.57;44.37;102557.03;5032516;28;20042;-65
2021/01/21 10:50:42;;;;;;;7.22;3.72;;;;;;;19.33;44.88;102555.03;5033454;28;20037;-65
2021/01/21 10:53:07;;;;;;;10.13;2.78;;;;;;;19.16;44.71;102558.47;5027946;28;20065;-64
2021/01/21 10:55:33;;;;;;;10.75;3.83;;;;;;;19.00;44.64;102552.06;5032898;28;20065;-65
2021/01/21 10:57:58;;;;;;;5.30;3.20;;;;;;;18.83;45.13;102557.25;5032782;28;20048;-65
2021/01/21 11:00:23;;;;;;;6.80;2.20;;;;;;;18.67;45.52;102557.94;5045613;28;20088;-66
2021/01/21 11:02:49;;;;;;;5.25;2.00;;;;;;;18.54;45.68;102556.88;5013372;28;20068;-67
2021/01/21 11:05:14;;;;;;;3.45;1.88;;;;;;;18.45;45.28;102550.50;5014048;28;20046;-67
2021/01/21 11:07:39;;;;;;;8.05;1.33;;;;;;;18.54;45.39;102551.53;5025491;28;20068;-67
2021/01/21 11:10:05;;;;;;;8.65;1.33;;;;;;;18.62;44.79;102546.31;5015309;28;20465;-68
2021/01/21 11:12:31;;;;;;;4.35;1.73;;;;;;;18.62;44.89;102546.31;5023765;28;20046;-67